createdAt,value
2022-11-13T00:04:23.526Z,41.70
2022-11-13T00:09:36.437Z,29.85
2022-11-13T00:14:48.061Z,27.92
2022-11-13T00:19:59.977Z,26.92
2022-11-13T00:25:13.328Z,22.45
2022-11-13T00:30:25.408Z,24.35
2022-11-13T00:35:37.081Z,25.23
2022-11-13T00:40:50.036Z,22.95
2022-11-13T00:46:01.927Z,27.92
2022-11-13T00:51:13.575Z,27.83
2022-11-13T00:56:26.679Z,30.70
2022-11-13T01:01:38.580Z,29.95
2022-11-13T01:06:50.808Z,32.40
2022-11-13T01:12:03.847Z,19.05
2022-11-13T01:17:15.278Z,18.30
2022-11-13T01:22:26.638Z,19.45
2022-11-13T01:27:39.737Z,19.83
2022-11-13T01:32:51.440Z,17.30
2022-11-13T01:38:03.254Z,17.95
2022-11-13T01:43:26.567Z,18.55
2022-11-13T01:48:43.587Z,15.60
2022-11-13T01:53:56.906Z,15.25
2022-11-13T01:59:14.151Z,15.02
2022-11-13T02:04:26.913Z,17.00
2022-11-13T02:09:41.327Z,16.27
2022-11-13T02:14:56.089Z,18.02
2022-11-13T02:20:09.188Z,17.05
2022-11-13T02:25:23.526Z,18.15
2022-11-13T02:30:37.191Z,22.17
2022-11-13T02:35:48.707Z,25.85
2022-11-13T02:41:01.924Z,20.52
2022-11-13T02:46:13.890Z,19.52
2022-11-13T02:51:26.013Z,17.52
2022-11-13T02:56:38.787Z,18.50
2022-11-13T03:01:50.595Z,18.80
2022-11-13T03:07:02.341Z,19.40
2022-11-13T03:12:15.328Z,19.00
2022-11-13T03:17:27.295Z,17.40
2022-11-13T03:22:39.148Z,19.80
2022-11-13T03:27:52.452Z,20.10
2022-11-13T03:33:04.056Z,19.23
2022-11-13T03:38:15.949Z,19.98
2022-11-13T03:43:29.253Z,19.02
2022-11-13T03:48:40.899Z,19.55
2022-11-13T03:53:52.712Z,22.25
2022-11-13T03:59:06.161Z,20.98
2022-11-13T04:04:18.268Z,21.10
2022-11-13T04:09:30.331Z,23.35
2022-11-13T04:14:43.952Z,24.63
2022-11-13T04:19:55.802Z,24.00
2022-11-13T04:25:08.467Z,22.52
2022-11-13T04:30:21.923Z,23.00
2022-11-13T04:35:34.052Z,22.13
2022-11-13T04:40:46.124Z,23.52
2022-11-13T04:45:59.401Z,21.90
2022-11-13T04:51:11.475Z,21.02
2022-11-13T04:56:23.164Z,22.35
2022-11-13T05:01:37.844Z,21.48
2022-11-13T05:06:49.952Z,22.30
2022-11-13T05:12:01.636Z,20.98
2022-11-13T05:17:15.141Z,21.65
2022-11-13T05:22:26.703Z,20.90
2022-11-13T05:27:38.436Z,18.65
2022-11-13T05:32:55.166Z,21.30
2022-11-13T05:38:07.300Z,18.15
2022-11-13T05:43:19.050Z,19.45
2022-11-13T05:48:33.217Z,20.23
2022-11-13T05:53:45.655Z,19.98
2022-11-13T05:58:58.520Z,18.17
2022-11-13T06:04:12.493Z,18.08
2022-11-13T06:09:27.461Z,18.00
2022-11-13T06:14:39.015Z,17.95
2022-11-13T06:19:55.075Z,18.08
2022-11-13T06:25:07.550Z,18.83
2022-11-13T06:30:19.982Z,18.35
2022-11-13T06:35:33.484Z,17.33
2022-11-13T06:40:45.309Z,18.13
2022-11-13T06:45:57.621Z,20.58
2022-11-13T06:51:15.781Z,21.33
2022-11-13T06:56:30.877Z,22.42
2022-11-13T07:01:42.837Z,22.85
2022-11-13T07:06:56.462Z,23.52
2022-11-13T07:12:08.560Z,20.90
2022-11-13T07:17:20.467Z,20.20
2022-11-13T07:22:35.143Z,19.83
2022-11-13T07:27:47.161Z,19.90
2022-11-13T07:33:03.275Z,20.00
2022-11-13T07:38:16.841Z,20.63
2022-11-13T07:43:29.440Z,22.15
2022-11-13T07:48:40.926Z,72.70
2022-11-13T07:53:53.968Z,20.25
2022-11-13T07:59:06.871Z,19.90
2022-11-13T08:04:19.211Z,20.25
2022-11-13T08:09:32.132Z,22.58
2022-11-13T08:14:43.679Z,22.05
2022-11-13T08:19:55.601Z,21.38
2022-11-13T08:25:09.568Z,20.38
2022-11-13T08:30:22.336Z,23.85
2022-11-13T08:35:34.013Z,22.80
2022-11-13T08:40:47.135Z,21.52
2022-11-13T08:45:59.118Z,20.58
2022-11-13T08:51:10.585Z,20.27
2022-11-13T08:56:23.367Z,23.10
2022-11-13T09:01:35.149Z,20.08
2022-11-13T09:06:46.456Z,23.00
2022-11-13T09:11:59.689Z,20.77
2022-11-13T09:17:11.504Z,23.40
2022-11-13T09:22:23.400Z,19.52
2022-11-13T09:27:36.205Z,18.80
2022-11-13T09:32:47.701Z,17.25
2022-11-13T09:37:59.725Z,17.85
2022-11-13T09:43:34.852Z,18.92
2022-11-13T09:48:53.566Z,16.88
2022-11-13T09:54:07.731Z,26.17
2022-11-13T09:59:30.129Z,20.30
2022-11-13T10:04:58.966Z,18.42
2022-11-13T10:10:43.382Z,17.08
2022-11-13T10:16:02.187Z,18.25
2022-11-13T10:21:26.671Z,18.15
2022-11-13T10:26:38.371Z,18.70
2022-11-13T10:31:53.741Z,18.50
2022-11-13T10:37:22.824Z,19.17
2022-11-13T10:42:40.184Z,17.55
2022-11-13T10:48:08.711Z,16.55
2022-11-13T10:53:21.675Z,20.52
2022-11-13T10:58:33.742Z,18.17
2022-11-13T11:03:51.615Z,18.35
2022-11-13T11:09:09.092Z,18.02
2022-11-13T11:14:29.049Z,18.15
2022-11-13T11:19:46.057Z,18.43
2022-11-13T11:25:02.897Z,18.67
2022-11-13T11:30:21.147Z,20.33
2022-11-13T11:35:41.956Z,19.20
2022-11-13T11:40:57.896Z,19.63
2022-11-13T11:46:12.805Z,18.55
2022-11-13T11:51:27.857Z,17.33
2022-11-13T11:56:48.385Z,17.98
2022-11-13T12:02:27.681Z,19.52
2022-11-13T12:07:48.393Z,18.10
2022-11-13T12:13:11.940Z,20.60
2022-11-13T12:18:36.426Z,19.63
2022-11-13T12:24:11.415Z,20.77
2022-11-13T12:29:39.718Z,21.13
2022-11-13T12:34:54.460Z,19.23
2022-11-13T12:40:09.351Z,19.10
2022-11-13T12:45:31.946Z,19.95
2022-11-13T12:50:43.656Z,18.73
2022-11-13T12:56:02.082Z,20.40
2022-11-13T13:01:22.241Z,20.08
2022-11-13T13:06:53.013Z,20.17
2022-11-13T13:12:14.768Z,20.77
2022-11-13T13:17:26.304Z,21.73
2022-11-13T13:22:39.212Z,21.20
2022-11-13T13:27:59.296Z,19.67
2022-11-13T13:33:22.086Z,23.02
2022-11-13T13:38:39.535Z,22.17
2022-11-13T13:44:03.577Z,21.23
2022-11-13T13:49:18.743Z,23.73
2022-11-13T13:54:34.020Z,20.27
2022-11-13T13:59:46.903Z,22.40
2022-11-13T14:04:58.297Z,21.75
2022-11-13T14:10:17.715Z,22.17
2022-11-13T14:15:32.956Z,22.65
2022-11-13T14:20:48.810Z,25.52
2022-11-13T14:26:00.775Z,25.30
2022-11-13T14:31:15.877Z,28.33
2022-11-13T14:36:31.652Z,27.55
2022-11-13T14:41:51.374Z,27.73
2022-11-13T14:47:06.605Z,27.92
2022-11-13T14:52:22.732Z,34.78
2022-11-13T14:57:35.503Z,31.15
2022-11-13T15:02:48.949Z,31.05
2022-11-13T15:08:01.914Z,35.17
2022-11-13T15:13:14.097Z,36.10
2022-11-13T15:18:27.709Z,39.72
2022-11-13T15:23:39.682Z,41.58
2022-11-13T15:28:52.721Z,51.95
2022-11-13T15:34:07.704Z,56.35
2022-11-13T15:39:23.881Z,54.38
2022-11-13T15:44:37.039Z,58.85
2022-11-13T15:50:12.415Z,56.03
2022-11-13T15:55:29.500Z,56.20
2022-11-13T16:00:43.005Z,60.53
2022-11-13T16:06:01.750Z,77.07
2022-11-13T16:11:16.148Z,75.28
2022-11-13T16:16:33.885Z,72.13
2022-11-13T16:21:47.347Z,109.03
2022-11-13T16:27:01.083Z,93.28
2022-11-13T16:32:17.567Z,88.68
2022-11-13T16:37:50.285Z,99.25
2022-11-13T16:43:03.656Z,92.40
2022-11-13T16:48:24.371Z,95.35
2022-11-13T16:53:37.821Z,92.18
2022-11-13T16:58:49.879Z,91.93
2022-11-13T17:04:03.458Z,96.53
2022-11-13T17:09:17.111Z,143.95
2022-11-13T17:14:29.055Z,130.68
2022-11-13T17:19:44.114Z,82.53
2022-11-13T17:25:24.236Z,65.28
2022-11-13T17:30:48.879Z,76.63
2022-11-13T17:36:41.901Z,70.40
2022-11-13T17:47:10.860Z,87.18
2022-11-13T17:52:23.115Z,73.25
2022-11-13T17:57:36.136Z,76.68
2022-11-13T18:02:48.077Z,76.22
2022-11-13T18:08:16.318Z,86.35
2022-11-13T18:13:42.883Z,91.57
2022-11-13T18:18:56.344Z,92.53
2022-11-13T18:24:11.379Z,84.00
2022-11-13T18:29:26.917Z,88.45
2022-11-13T18:34:38.714Z,83.88
2022-11-13T18:39:50.846Z,91.43
2022-11-13T18:45:06.889Z,115.30
2022-11-13T18:50:18.936Z,101.47
2022-11-13T18:55:39.728Z,93.15
2022-11-13T19:00:53.225Z,137.38
2022-11-13T19:06:07.683Z,110.53
2022-11-13T19:11:23.065Z,94.05
2022-11-13T19:16:38.187Z,81.00
2022-11-13T19:21:51.451Z,79.97
2022-11-13T19:27:03.449Z,71.40
2022-11-13T19:32:26.935Z,63.92
2022-11-13T19:37:38.680Z,65.95
2022-11-13T19:42:50.921Z,60.40
2022-11-13T19:48:04.516Z,55.92
2022-11-13T19:53:16.870Z,50.67
2022-11-13T19:58:29.443Z,48.35
2022-11-13T20:04:03.225Z,51.28
2022-11-13T20:09:18.403Z,50.03
2022-11-13T20:14:33.180Z,50.95
2022-11-13T20:19:58.570Z,61.78
2022-11-13T20:25:11.120Z,63.63
2022-11-13T20:30:32.923Z,63.05
2022-11-13T20:35:54.665Z,59.83
2022-11-13T20:41:07.674Z,62.88
2022-11-13T20:46:21.759Z,62.30
2022-11-13T20:51:38.474Z,41.28
2022-11-13T20:56:50.280Z,35.95
2022-11-13T21:02:04.168Z,35.78
2022-11-13T21:07:17.389Z,33.97
2022-11-13T21:12:29.392Z,33.58
2022-11-13T21:17:41.359Z,32.40
2022-11-13T21:22:56.492Z,31.08
2022-11-13T21:28:08.232Z,33.17
2022-11-13T21:33:20.433Z,34.45
2022-11-13T21:38:34.123Z,35.63
2022-11-13T21:43:45.780Z,41.50
2022-11-13T21:48:59.969Z,44.05
2022-11-13T21:54:13.067Z,46.20
2022-11-13T21:59:24.971Z,44.97
2022-11-13T22:04:36.497Z,52.38
2022-11-13T22:09:51.685Z,67.82
2022-11-13T22:15:05.392Z,109.43
2022-11-13T22:20:17.385Z,118.40
2022-11-13T22:25:30.426Z,54.60
2022-11-13T22:30:42.690Z,42.95
2022-11-13T22:36:05.598Z,58.38
2022-11-13T22:41:23.160Z,53.28
2022-11-13T22:46:37.070Z,40.72
2022-11-13T22:51:49.211Z,36.97
2022-11-13T22:57:04.251Z,42.72
2022-11-13T23:02:16.330Z,43.65
2022-11-13T23:07:27.900Z,42.83
2022-11-13T23:12:43.016Z,48.67
2022-11-13T23:17:54.773Z,51.55
2022-11-13T23:23:06.592Z,53.70
2022-11-13T23:28:19.632Z,45.83
2022-11-13T23:33:31.546Z,48.45
2022-11-13T23:38:43.520Z,43.25
2022-11-13T23:44:12.312Z,38.28
2022-11-13T23:49:24.212Z,33.03
2022-11-13T23:54:36.263Z,24.38
2022-11-13T23:59:49.833Z,27.70
